createdAt,value
2022-09-28T00:01:06.751Z,9.36
2022-09-28T00:03:33.297Z,9.26
2022-09-28T00:06:06.097Z,9.26
2022-09-28T00:08:33.229Z,9.38
2022-09-28T00:10:59.640Z,9.38
2022-09-28T00:13:26.146Z,9.30
2022-09-28T00:16:10.371Z,9.35
2022-09-28T00:18:36.915Z,9.34
2022-09-28T00:21:09.983Z,9.36
2022-09-28T00:23:59.812Z,9.35
2022-09-28T00:26:27.985Z,9.38
2022-09-28T00:28:55.948Z,9.40
2022-09-28T00:31:23.218Z,9.43
2022-09-28T00:33:51.408Z,9.42
2022-09-28T00:36:18.256Z,9.33
2022-09-28T00:38:44.691Z,9.26
2022-09-28T00:41:11.619Z,9.27
2022-09-28T00:43:38.375Z,9.28
2022-09-28T00:46:15.227Z,9.25
2022-09-28T00:48:56.688Z,9.35
2022-09-28T00:51:24.922Z,9.23
2022-09-28T00:53:52.953Z,9.27
2022-09-28T00:56:23.811Z,9.31
2022-09-28T00:58:53.210Z,9.28
2022-09-28T01:01:19.635Z,9.30
2022-09-28T01:03:48.668Z,9.28
2022-09-28T01:06:22.446Z,9.38
2022-09-28T01:08:52.720Z,9.43
2022-09-28T01:11:19.533Z,9.36
2022-09-28T01:13:48.244Z,9.37
2022-09-28T01:16:36.659Z,9.33
2022-09-28T01:19:59.798Z,9.32
2022-09-28T01:22:51.076Z,9.35
2022-09-28T01:25:38.275Z,9.37
2022-09-28T01:28:09.227Z,9.36
2022-09-28T01:30:43.545Z,9.32
2022-09-28T01:33:22.563Z,9.33
2022-09-28T01:35:55.553Z,9.28
2022-09-28T01:38:28.443Z,9.33
2022-09-28T01:40:58.004Z,9.32
2022-09-28T01:43:27.135Z,9.40
2022-09-28T01:46:06.717Z,9.36
2022-09-28T01:48:45.097Z,9.34
2022-09-28T01:51:21.657Z,9.42
2022-09-28T01:53:58.892Z,9.47
2022-09-28T01:56:33.382Z,9.43
2022-09-28T01:59:11.786Z,9.37
2022-09-28T02:01:47.694Z,9.30
2022-09-28T02:04:20.973Z,9.30
2022-09-28T02:07:34.718Z,9.27
2022-09-28T02:10:11.231Z,9.26
2022-09-28T02:12:43.746Z,9.37
2022-09-28T02:15:23.003Z,9.38
2022-09-28T02:17:49.978Z,9.32
2022-09-28T02:20:17.266Z,9.26
2022-09-28T02:22:47.912Z,9.41
2022-09-28T02:25:39.391Z,9.33
2022-09-28T02:28:09.694Z,9.36
2022-09-28T02:30:39.338Z,9.34
2022-09-28T02:33:21.525Z,9.32
2022-09-28T02:35:48.041Z,9.32
2022-09-28T02:38:15.422Z,9.34
2022-09-28T02:40:47.447Z,9.34
2022-09-28T02:43:24.416Z,9.31
2022-09-28T02:46:06.090Z,9.33
2022-09-28T02:49:17.295Z,9.25
2022-09-28T02:52:13.938Z,9.27
2022-09-28T02:55:05.276Z,9.26
2022-09-28T02:57:50.677Z,9.15
2022-09-28T03:00:22.728Z,9.26
2022-09-28T03:03:03.692Z,9.34
2022-09-28T03:05:47.374Z,9.27
2022-09-28T03:08:16.869Z,9.18
2022-09-28T03:10:49.637Z,9.19
2022-09-28T03:13:16.678Z,9.19
2022-09-28T03:15:48.548Z,9.18
2022-09-28T03:18:15.419Z,9.22
2022-09-28T03:20:42.360Z,9.18
2022-09-28T03:23:25.246Z,9.19
2022-09-28T03:25:52.299Z,9.19
2022-09-28T03:28:18.665Z,9.20
2022-09-28T03:30:45.320Z,9.25
2022-09-28T03:33:11.852Z,9.16
2022-09-28T03:35:38.420Z,9.15
2022-09-28T03:38:04.969Z,9.17
2022-09-28T03:40:33.707Z,9.21
2022-09-28T03:43:00.908Z,9.27
2022-09-28T03:45:27.870Z,9.22
2022-09-28T03:47:54.623Z,9.21
2022-09-28T03:50:20.969Z,9.26
2022-09-28T03:52:48.164Z,9.20
2022-09-28T03:55:14.749Z,9.17
2022-09-28T03:57:41.434Z,9.17
2022-09-28T04:00:09.208Z,9.13
2022-09-28T04:02:41.554Z,9.16
2022-09-28T04:05:09.209Z,9.17
2022-09-28T04:07:37.158Z,9.16
2022-09-28T04:10:03.740Z,9.10
2022-09-28T04:12:30.929Z,9.11
2022-09-28T04:14:57.284Z,9.11
2022-09-28T04:17:23.822Z,9.05
2022-09-28T04:19:50.646Z,9.05
2022-09-28T04:22:37.674Z,9.12
2022-09-28T04:25:04.695Z,9.07
2022-09-28T04:27:49.839Z,9.10
2022-09-28T04:30:16.829Z,9.01
2022-09-28T04:32:48.152Z,9.01
2022-09-28T04:35:15.119Z,8.98
2022-09-28T04:37:41.790Z,9.06
2022-09-28T04:40:08.743Z,9.00
2022-09-28T04:42:36.606Z,9.03
2022-09-28T04:45:04.694Z,9.06
2022-09-28T04:47:32.450Z,9.09
2022-09-28T04:50:17.341Z,8.87
2022-09-28T04:53:02.226Z,8.93
2022-09-28T04:55:32.272Z,8.86
2022-09-28T04:58:02.406Z,8.88
2022-09-28T05:00:29.901Z,8.80
2022-09-28T05:03:06.507Z,8.74
2022-09-28T05:05:59.007Z,8.76
2022-09-28T05:08:51.857Z,8.68
2022-09-28T05:11:19.782Z,8.62
2022-09-28T05:13:46.268Z,8.60
2022-09-28T05:16:16.285Z,8.73
2022-09-28T05:19:01.501Z,8.60
2022-09-28T05:21:29.885Z,8.64
2022-09-28T05:23:58.167Z,8.64
2022-09-28T05:26:25.006Z,8.45
2022-09-28T05:28:51.444Z,8.59
2022-09-28T05:31:37.959Z,8.63
2022-09-28T05:34:04.401Z,8.58
2022-09-28T05:36:32.452Z,8.58
2022-09-28T05:38:58.852Z,8.48
2022-09-28T05:41:25.193Z,8.41
2022-09-28T05:43:52.541Z,8.33
2022-09-28T05:46:20.134Z,8.35
2022-09-28T05:48:47.886Z,8.28
2022-09-28T05:51:14.316Z,8.27
2022-09-28T05:53:40.720Z,8.26
2022-09-28T05:56:07.174Z,8.17
2022-09-28T05:58:35.631Z,8.23
2022-09-28T06:01:02.402Z,8.19
2022-09-28T06:03:29.986Z,8.19
2022-09-28T06:05:56.410Z,8.35
2022-09-28T06:08:23.922Z,8.30
2022-09-28T06:11:01.437Z,8.32
2022-09-28T06:13:29.113Z,8.19
2022-09-28T06:15:55.878Z,8.26
2022-09-28T06:18:22.304Z,8.30
2022-09-28T06:21:12.779Z,8.29
2022-09-28T06:23:49.005Z,8.16
2022-09-28T06:26:16.781Z,8.14
2022-09-28T06:28:44.487Z,8.28
2022-09-28T06:31:11.072Z,8.23
2022-09-28T06:33:44.673Z,8.34
2022-09-28T06:36:11.166Z,8.39
2022-09-28T06:38:38.042Z,8.29
2022-09-28T06:41:06.533Z,8.37
2022-09-28T06:43:34.895Z,8.43
2022-09-28T06:46:21.441Z,8.45
2022-09-28T06:48:51.115Z,8.40
2022-09-28T06:51:39.620Z,8.43
2022-09-28T06:54:18.343Z,8.46
2022-09-28T06:57:20.495Z,8.45
2022-09-28T06:59:47.109Z,8.42
2022-09-28T07:02:16.532Z,8.30
2022-09-28T07:05:13.418Z,8.42
2022-09-28T07:07:55.211Z,8.47
2022-09-28T07:10:48.882Z,8.55
2022-09-28T07:13:48.709Z,8.65
2022-09-28T07:16:13.899Z,8.71
2022-09-28T07:18:40.390Z,8.69
2022-09-28T07:21:08.178Z,8.71
2022-09-28T07:23:46.682Z,8.68
2022-09-28T07:26:24.610Z,8.67
2022-09-28T07:29:13.063Z,8.66
2022-09-28T07:31:53.659Z,8.76
2022-09-28T07:34:44.413Z,8.80
2022-09-28T07:37:15.777Z,8.82
2022-09-28T07:40:00.869Z,8.83
2022-09-28T07:42:30.989Z,8.86
2022-09-28T07:44:58.436Z,8.89
2022-09-28T07:47:34.568Z,8.97
2022-09-28T07:50:21.095Z,8.92
2022-09-28T07:53:16.846Z,8.92
2022-09-28T07:56:08.660Z,8.96
2022-09-28T07:58:41.934Z,8.95
2022-09-28T08:01:26.748Z,8.91
2022-09-28T08:03:56.279Z,8.94
2022-09-28T08:06:23.071Z,9.02
2022-09-28T08:08:50.187Z,9.09
2022-09-28T08:11:19.328Z,9.11
2022-09-28T08:14:14.987Z,9.20
2022-09-28T08:16:53.774Z,9.25
2022-09-28T08:19:53.361Z,9.26
2022-09-28T08:22:20.141Z,9.31
2022-09-28T08:24:49.725Z,9.34
2022-09-28T08:27:18.298Z,9.34
2022-09-28T08:29:44.765Z,9.45
2022-09-28T08:32:32.691Z,9.44
2022-09-28T08:35:33.986Z,9.45
2022-09-28T08:38:13.300Z,9.50
2022-09-28T08:41:17.605Z,9.55
2022-09-28T08:44:08.209Z,9.55
2022-09-28T08:47:33.397Z,9.49
2022-09-28T08:50:24.084Z,9.59
2022-09-28T08:53:31.283Z,9.58
2022-09-28T08:56:27.596Z,9.60
2022-09-28T08:59:00.300Z,9.56
2022-09-28T09:01:34.507Z,9.61
2022-09-28T09:04:06.874Z,9.58
2022-09-28T09:07:11.622Z,9.63
2022-09-28T09:10:01.302Z,9.66
2022-09-28T09:12:44.988Z,9.78
2022-09-28T09:15:48.081Z,9.84
2022-09-28T09:18:37.384Z,9.90
2022-09-28T09:22:05.165Z,10.00
2022-09-28T09:24:46.481Z,10.06
2022-09-28T09:27:46.037Z,10.16
2022-09-28T09:30:20.712Z,10.34
2022-09-28T09:33:28.599Z,10.51
2022-09-28T09:36:38.728Z,10.64
2022-09-28T09:39:47.683Z,10.75
2022-09-28T09:42:58.792Z,10.81
2022-09-28T09:46:05.916Z,11.07
2022-09-28T09:48:55.934Z,11.31
2022-09-28T09:51:45.692Z,11.44
2022-09-28T09:54:29.104Z,11.46
2022-09-28T09:57:21.609Z,11.39
2022-09-28T10:00:02.077Z,11.26
2022-09-28T10:02:57.100Z,11.20
2022-09-28T10:05:35.762Z,11.12
2022-09-28T10:08:08.277Z,11.15
2022-09-28T10:11:02.492Z,11.08
2022-09-28T10:13:32.074Z,11.02
2022-09-28T10:16:01.696Z,10.99
2022-09-28T10:18:38.962Z,10.95
2022-09-28T10:21:46.815Z,11.15
2022-09-28T10:24:38.472Z,11.38
2022-09-28T10:27:14.424Z,11.44
2022-09-28T10:30:01.872Z,11.47
2022-09-28T10:32:39.949Z,11.34
2022-09-28T10:35:18.894Z,11.20
2022-09-28T10:37:54.138Z,11.03
2022-09-28T10:40:46.688Z,10.95
2022-09-28T10:43:26.840Z,10.88
2022-09-28T10:46:09.898Z,10.83
2022-09-28T10:49:11.938Z,10.79
2022-09-28T10:51:51.577Z,10.70
2022-09-28T10:54:29.469Z,10.69
2022-09-28T10:56:58.629Z,10.75
2022-09-28T10:59:41.405Z,10.95
2022-09-28T11:02:35.742Z,11.07
2022-09-28T11:05:27.812Z,11.08
2022-09-28T11:07:59.782Z,11.12
2022-09-28T11:10:37.166Z,11.07
2022-09-28T11:13:11.083Z,11.09
2022-09-28T11:15:43.237Z,11.09
2022-09-28T11:18:25.494Z,11.05
2022-09-28T11:20:52.777Z,11.00
2022-09-28T11:23:26.423Z,10.98
2022-09-28T11:26:02.538Z,10.98
2022-09-28T11:28:33.129Z,10.97
2022-09-28T11:31:03.772Z,10.98
2022-09-28T11:33:51.097Z,10.96
2022-09-28T11:37:13.572Z,10.94
2022-09-28T11:40:04.510Z,10.91
2022-09-28T11:42:46.576Z,10.86
2022-09-28T11:45:31.597Z,10.99
2022-09-28T11:48:02.558Z,11.32
2022-09-28T11:50:47.199Z,11.78
2022-09-28T11:53:38.520Z,11.90
2022-09-28T11:56:31.882Z,11.87
2022-09-28T11:59:04.673Z,11.85
2022-09-28T12:01:47.098Z,11.85
2022-09-28T12:04:39.748Z,11.80
2022-09-28T12:07:15.914Z,11.74
2022-09-28T12:10:00.817Z,11.70
2022-09-28T12:13:04.486Z,11.65
2022-09-28T12:16:07.751Z,11.61
2022-09-28T12:18:45.031Z,11.61
2022-09-28T12:21:30.136Z,11.62
2022-09-28T12:24:21.056Z,11.59
2022-09-28T12:26:53.976Z,11.60
2022-09-28T12:29:24.459Z,11.64
2022-09-28T12:31:58.426Z,11.64
2022-09-28T12:34:25.416Z,11.60
2022-09-28T12:37:08.193Z,11.65
2022-09-28T12:40:00.056Z,11.68
2022-09-28T12:42:57.767Z,11.71
2022-09-28T12:46:06.737Z,11.84
2022-09-28T12:48:57.201Z,11.85
2022-09-28T12:52:00.263Z,11.93
2022-09-28T12:54:47.249Z,12.07
2022-09-28T12:57:39.251Z,12.03
2022-09-28T13:00:13.190Z,12.11
2022-09-28T13:02:42.378Z,12.05
2022-09-28T13:05:44.235Z,12.01
2022-09-28T13:08:25.306Z,11.91
2022-09-28T13:11:20.771Z,11.87
2022-09-28T13:14:03.872Z,11.75
2022-09-28T13:16:37.013Z,11.68
2022-09-28T13:19:08.108Z,11.61
2022-09-28T13:22:09.696Z,11.60
2022-09-28T13:24:38.489Z,11.58
2022-09-28T13:27:13.102Z,11.65
2022-09-28T13:29:40.656Z,11.77
2022-09-28T13:32:08.466Z,11.88
2022-09-28T13:34:37.011Z,11.90
2022-09-28T13:37:09.861Z,11.89
2022-09-28T13:39:45.426Z,11.89
2022-09-28T13:42:46.035Z,11.91
2022-09-28T13:45:18.273Z,11.93
2022-09-28T13:48:04.695Z,11.91
2022-09-28T13:50:31.005Z,11.93
2022-09-28T13:53:09.467Z,11.93
2022-09-28T13:55:56.101Z,11.94
2022-09-28T13:58:25.446Z,11.94
2022-09-28T14:01:11.606Z,11.94
2022-09-28T14:03:53.800Z,11.93
2022-09-28T14:06:23.080Z,11.96
2022-09-28T14:08:52.465Z,11.96
2022-09-28T14:11:34.274Z,11.96
2022-09-28T14:14:14.065Z,11.95
2022-09-28T14:16:42.121Z,11.94
2022-09-28T14:19:15.655Z,11.91
2022-09-28T14:22:13.406Z,11.86
2022-09-28T14:24:55.401Z,11.88
2022-09-28T14:27:37.017Z,11.89
2022-09-28T14:30:18.483Z,11.85
2022-09-28T14:32:59.320Z,11.80
2022-09-28T14:35:33.760Z,11.83
2022-09-28T14:38:32.029Z,11.81
2022-09-28T14:41:10.830Z,11.80
2022-09-28T14:44:02.731Z,11.79
2022-09-28T14:46:33.565Z,11.79
2022-09-28T14:49:05.747Z,11.77
2022-09-28T14:51:34.706Z,11.77
2022-09-28T14:54:13.018Z,11.80
2022-09-28T14:56:45.343Z,11.77
2022-09-28T14:59:25.468Z,11.76
2022-09-28T15:02:01.217Z,11.75
2022-09-28T15:04:29.962Z,11.73
2022-09-28T15:06:58.015Z,11.68
2022-09-28T15:09:32.884Z,11.63
2022-09-28T15:12:21.701Z,11.71
2022-09-28T15:14:58.582Z,11.69
2022-09-28T15:17:52.367Z,11.69
2022-09-28T15:20:31.496Z,11.68
2022-09-28T15:22:59.961Z,11.64
2022-09-28T15:25:28.976Z,11.62
2022-09-28T15:28:04.455Z,11.60
2022-09-28T15:30:32.918Z,11.60
2022-09-28T15:33:19.758Z,11.57
2022-09-28T15:36:01.982Z,11.58
2022-09-28T15:38:29.317Z,11.54
2022-09-28T15:40:56.050Z,11.53
2022-09-28T15:43:28.982Z,11.55
2022-09-28T15:46:13.158Z,11.55
2022-09-28T15:48:51.973Z,11.54
2022-09-28T15:51:21.303Z,11.52
2022-09-28T15:54:06.462Z,11.57
2022-09-28T15:56:52.019Z,11.55
2022-09-28T15:59:30.674Z,11.52
2022-09-28T16:02:11.682Z,11.53
2022-09-28T16:04:42.930Z,11.51
2022-09-28T16:07:09.180Z,11.52
2022-09-28T16:10:08.485Z,11.48
2022-09-28T16:12:41.568Z,11.49
2022-09-28T16:15:23.269Z,11.54
2022-09-28T16:17:56.192Z,11.51
2022-09-28T16:20:39.640Z,11.50
2022-09-28T16:23:29.104Z,11.50
2022-09-28T16:26:00.404Z,11.47
2022-09-28T16:28:51.837Z,11.47
2022-09-28T16:31:18.197Z,11.46
2022-09-28T16:33:54.026Z,11.46
2022-09-28T16:36:22.304Z,11.45
2022-09-28T16:38:49.505Z,11.46
2022-09-28T16:41:22.665Z,11.44
2022-09-28T16:43:54.937Z,11.45
2022-09-28T16:46:32.599Z,11.47
2022-09-28T16:49:02.236Z,11.45
2022-09-28T16:51:28.973Z,11.43
2022-09-28T16:54:19.246Z,11.42
2022-09-28T16:56:45.682Z,11.41
2022-09-28T16:59:13.951Z,11.41
2022-09-28T17:01:43.575Z,11.42
2022-09-28T17:04:10.158Z,11.35
2022-09-28T17:06:36.786Z,11.32
2022-09-28T17:09:06.773Z,11.32
2022-09-28T17:11:33.467Z,11.31
2022-09-28T17:14:00.123Z,11.33
2022-09-28T17:16:57.383Z,11.30
2022-09-28T17:19:28.555Z,11.22
2022-09-28T17:21:54.921Z,11.24
2022-09-28T17:24:21.734Z,11.16
2022-09-28T17:26:50.796Z,11.15
2022-09-28T17:29:18.822Z,11.15
2022-09-28T17:31:46.796Z,11.12
2022-09-28T17:34:15.915Z,11.09
2022-09-28T17:36:43.092Z,11.09
2022-09-28T17:39:14.385Z,11.09
2022-09-28T17:41:41.034Z,10.99
2022-09-28T17:44:07.674Z,11.02
2022-09-28T17:46:36.959Z,10.93
2022-09-28T17:49:05.107Z,11.01
2022-09-28T17:51:34.560Z,11.00
2022-09-28T17:54:01.716Z,11.00
2022-09-28T17:56:32.170Z,11.00
2022-09-28T17:59:01.232Z,10.99
2022-09-28T18:01:33.940Z,10.83
2022-09-28T18:04:02.514Z,10.91
2022-09-28T18:06:29.066Z,10.94
2022-09-28T18:08:55.466Z,10.92
2022-09-28T18:11:22.382Z,10.84
2022-09-28T18:13:48.747Z,10.81
2022-09-28T18:16:15.459Z,10.74
2022-09-28T18:18:41.952Z,10.72
2022-09-28T18:21:09.045Z,10.69
2022-09-28T18:23:36.837Z,10.76
2022-09-28T18:26:03.836Z,10.78
2022-09-28T18:28:30.372Z,10.77
2022-09-28T18:30:57.776Z,10.71
2022-09-28T18:33:24.199Z,10.76
2022-09-28T18:35:52.691Z,10.63
2022-09-28T18:38:19.226Z,10.59
2022-09-28T18:40:46.323Z,10.58
2022-09-28T18:43:12.734Z,10.69
2022-09-28T18:45:39.179Z,10.73
2022-09-28T18:48:05.692Z,10.66
2022-09-28T18:50:32.121Z,10.58
2022-09-28T18:53:11.315Z,10.69
2022-09-28T18:55:39.570Z,10.72
2022-09-28T18:58:07.357Z,10.70
2022-09-28T19:00:33.898Z,10.60
2022-09-28T19:03:01.891Z,10.62
2022-09-28T19:05:28.596Z,10.58
2022-09-28T19:07:55.124Z,10.68
2022-09-28T19:10:21.532Z,10.62
2022-09-28T19:12:47.929Z,10.65
2022-09-28T19:15:14.423Z,10.66
2022-09-28T19:17:40.790Z,10.50
2022-09-28T19:20:07.590Z,10.48
2022-09-28T19:22:33.985Z,10.44
2022-09-28T19:25:00.459Z,10.37
2022-09-28T19:27:26.822Z,10.34
2022-09-28T19:29:53.178Z,10.39
2022-09-28T19:32:19.542Z,10.39
2022-09-28T19:34:45.889Z,10.39
2022-09-28T19:37:12.304Z,10.40
2022-09-28T19:39:38.678Z,10.40
2022-09-28T19:42:05.203Z,10.41
2022-09-28T19:44:33.214Z,10.34
2022-09-28T19:47:07.075Z,10.31
2022-09-28T19:49:38.443Z,10.41
2022-09-28T19:52:15.344Z,10.36
2022-09-28T19:54:48.446Z,10.32
2022-09-28T19:57:15.853Z,10.22
2022-09-28T19:59:42.539Z,10.30
2022-09-28T20:02:10.929Z,10.26
2022-09-28T20:04:37.380Z,10.25
2022-09-28T20:07:04.206Z,10.22
2022-09-28T20:09:31.709Z,10.21
2022-09-28T20:11:58.162Z,10.20
2022-09-28T20:14:26.437Z,10.23
2022-09-28T20:16:57.040Z,10.28
2022-09-28T20:19:23.446Z,10.25
2022-09-28T20:21:50.090Z,10.26
2022-09-28T20:24:17.144Z,10.19
2022-09-28T20:26:44.309Z,10.13
2022-09-28T20:29:10.794Z,10.17
2022-09-28T20:31:37.772Z,10.09
2022-09-28T20:34:05.492Z,10.23
2022-09-28T20:36:32.278Z,10.30
2022-09-28T20:39:02.739Z,10.26
2022-09-28T20:41:36.694Z,10.27
2022-09-28T20:44:05.955Z,10.27
2022-09-28T20:46:34.671Z,10.28
2022-09-28T20:49:01.322Z,10.23
2022-09-28T20:51:27.744Z,10.18
2022-09-28T20:53:56.171Z,10.11
2022-09-28T20:56:24.102Z,10.05
2022-09-28T20:58:51.673Z,9.97
2022-09-28T21:01:21.462Z,9.97
2022-09-28T21:03:50.492Z,9.91
2022-09-28T21:06:18.012Z,9.84
2022-09-28T21:08:45.739Z,9.79
2022-09-28T21:11:13.988Z,9.70
2022-09-28T21:13:42.868Z,9.53
2022-09-28T21:16:11.210Z,9.53
2022-09-28T21:18:38.618Z,9.57
2022-09-28T21:21:07.241Z,9.37
2022-09-28T21:23:34.410Z,9.52
2022-09-28T21:26:05.791Z,9.51
2022-09-28T21:28:32.319Z,9.51
2022-09-28T21:30:59.326Z,9.50
2022-09-28T21:33:25.775Z,9.46
2022-09-28T21:35:52.212Z,9.43
2022-09-28T21:38:18.636Z,9.28
2022-09-28T21:40:45.249Z,9.29
2022-09-28T21:43:11.714Z,9.22
2022-09-28T21:45:39.493Z,9.24
2022-09-28T21:48:05.833Z,9.18
2022-09-28T21:50:32.507Z,9.22
2022-09-28T21:53:00.121Z,9.15
2022-09-28T21:55:26.482Z,9.07
2022-09-28T21:57:52.828Z,9.04
2022-09-28T22:00:23.144Z,9.03
2022-09-28T22:02:51.015Z,8.87
2022-09-28T22:05:17.870Z,8.84
2022-09-28T22:07:44.396Z,8.74
2022-09-28T22:10:13.456Z,8.80
2022-09-28T22:12:39.906Z,8.77
2022-09-28T22:15:07.008Z,8.64
2022-09-28T22:17:33.518Z,8.69
2022-09-28T22:20:00.037Z,8.73
2022-09-28T22:22:29.190Z,8.46
2022-09-28T22:24:56.106Z,8.64
2022-09-28T22:27:23.909Z,8.70
2022-09-28T22:29:50.983Z,8.64
2022-09-28T22:32:17.416Z,8.67
2022-09-28T22:34:43.817Z,8.65
2022-09-28T22:37:10.457Z,8.60
2022-09-28T22:39:37.959Z,8.56
2022-09-28T22:42:04.657Z,8.53
2022-09-28T22:44:31.045Z,8.47
2022-09-28T22:46:57.389Z,8.50
2022-09-28T22:49:24.340Z,8.42
2022-09-28T22:51:50.694Z,8.37
2022-09-28T22:54:17.166Z,8.22
2022-09-28T22:56:44.090Z,8.24
2022-09-28T22:59:11.540Z,8.24
2022-09-28T23:01:38.213Z,8.24
2022-09-28T23:04:04.667Z,8.33
2022-09-28T23:06:31.046Z,8.31
2022-09-28T23:08:57.486Z,8.37
2022-09-28T23:11:23.852Z,8.32
2022-09-28T23:13:55.830Z,8.36
2022-09-28T23:16:24.799Z,8.23
2022-09-28T23:18:52.239Z,8.26
2022-09-28T23:21:20.994Z,8.26
2022-09-28T23:23:53.382Z,8.21
2022-09-28T23:26:25.937Z,8.18
2022-09-28T23:28:53.318Z,8.19
2022-09-28T23:31:28.267Z,8.19
2022-09-28T23:34:06.347Z,8.33
2022-09-28T23:36:33.332Z,8.27
2022-09-28T23:38:59.826Z,8.24
2022-09-28T23:41:26.357Z,8.29
2022-09-28T23:43:52.712Z,8.29
2022-09-28T23:46:21.055Z,8.32
2022-09-28T23:48:48.160Z,8.27
2022-09-28T23:51:14.601Z,8.28
2022-09-28T23:53:40.957Z,8.10
2022-09-28T23:56:07.333Z,8.20
2022-09-28T23:58:33.726Z,8.11
